Terminal Aerodrome Forecast
Issued by NWS Lake Charles, LA

Home | Current Version | Previous Version | Text Only | Print | Product List | Glossary On
Versions: 1 2 3 4 5 6 7 8 9 10 11 12
484
FTUS44 KLCH 182321
TAFARA
TAF
KARA 182321Z 1900/1924 VRB03KT P6SM SCT090
     FM190300 00000KT P6SM OVC090
     FM191500 12005KT P6SM OVC060=

USA.gov is the U.S. government's official web portal to all federal, state and local government web resources and services.